sensor_id;sensor_type;location;lat;lon;timestamp;pressure;altitude;pressure_sealevel;temperature;humidity
54870;BME280;40756;-37.950;145.008;2023-10-09T00:00:34;102596.60;;;14.52;39.37
54870;BME280;40756;-37.950;145.008;2023-10-09T00:03:04;102591.66;;;15.57;38.39
54870;BME280;40756;-37.950;145.008;2023-10-09T00:05:34;102592.15;;;15.55;37.72
54870;BME280;40756;-37.950;145.008;2023-10-09T00:08:04;102590.50;;;15.13;38.69
54870;BME280;40756;-37.950;145.008;2023-10-09T00:10:33;102589.44;;;14.25;40.01
54870;BME280;40756;-37.950;145.008;2023-10-09T00:13:03;102590.50;;;14.80;40.28
54870;BME280;40756;-37.950;145.008;2023-10-09T00:15:34;102586.80;;;14.90;41.14
54870;BME280;40756;-37.950;145.008;2023-10-09T00:18:04;102583.01;;;15.09;39.28
54870;BME280;40756;-37.950;145.008;2023-10-09T00:20:38;102576.44;;;15.09;40.53
54870;BME280;40756;-37.950;145.008;2023-10-09T00:23:07;102575.42;;;14.20;41.25
54870;BME280;40756;-37.950;145.008;2023-10-09T00:25:37;102579.67;;;14.49;41.71
54870;BME280;40756;-37.950;145.008;2023-10-09T00:28:07;102579.59;;;14.86;40.95
54870;BME280;40756;-37.950;145.008;2023-10-09T00:30:42;102581.56;;;14.49;41.18
54870;BME280;40756;-37.950;145.008;2023-10-09T00:33:11;102578.87;;;14.82;41.33
54870;BME280;40756;-37.950;145.008;2023-10-09T00:35:41;102578.69;;;14.87;40.16
54870;BME280;40756;-37.950;145.008;2023-10-09T00:38:10;102575.18;;;15.28;40.13
54870;BME280;40756;-37.950;145.008;2023-10-09T00:40:40;102576.12;;;14.74;40.71
54870;BME280;40756;-37.950;145.008;2023-10-09T00:43:10;102572.46;;;16.15;39.52
54870;BME280;40756;-37.950;145.008;2023-10-09T00:45:40;102572.05;;;15.30;39.73
54870;BME280;40756;-37.950;145.008;2023-10-09T00:48:10;102569.70;;;14.97;39.62
54870;BME280;40756;-37.950;145.008;2023-10-09T00:50:40;102569.08;;;15.72;39.67
54870;BME280;40756;-37.950;145.008;2023-10-09T00:53:11;102574.02;;;14.81;41.51
54870;BME280;40756;-37.950;145.008;2023-10-09T00:55:41;102571.72;;;14.62;40.31
54870;BME280;40756;-37.950;145.008;2023-10-09T00:58:13;102568.59;;;14.67;40.01
54870;BME280;40756;-37.950;145.008;2023-10-09T01:00:44;102566.56;;;14.62;40.75
54870;BME280;40756;-37.950;145.008;2023-10-09T01:03:15;102562.85;;;14.69;40.74
54870;BME280;40756;-37.950;145.008;2023-10-09T01:05:46;102562.61;;;14.49;41.32
54870;BME280;40756;-37.950;145.008;2023-10-09T01:08:15;102564.38;;;13.53;42.40
54870;BME280;40756;-37.950;145.008;2023-10-09T01:10:46;102557.09;;;14.94;40.30
54870;BME280;40756;-37.950;145.008;2023-10-09T01:13:16;102559.20;;;13.68;42.10
54870;BME280;40756;-37.950;145.008;2023-10-09T01:15:45;102550.82;;;14.95;41.32
54870;BME280;40756;-37.950;145.008;2023-10-09T01:18:15;102547.63;;;14.69;40.86
54870;BME280;40756;-37.950;145.008;2023-10-09T01:20:44;102544.27;;;14.85;41.01
54870;BME280;40756;-37.950;145.008;2023-10-09T01:23:14;102546.46;;;14.37;41.01
54870;BME280;40756;-37.950;145.008;2023-10-09T01:25:44;102543.18;;;14.80;40.04
54870;BME280;40756;-37.950;145.008;2023-10-09T01:28:13;102535.89;;;15.79;40.05
54870;BME280;40756;-37.950;145.008;2023-10-09T01:30:43;102538.51;;;15.00;40.55
54870;BME280;40756;-37.950;145.008;2023-10-09T01:33:13;102537.77;;;14.80;40.93
54870;BME280;40756;-37.950;145.008;2023-10-09T01:35:42;102540.44;;;15.13;40.90
54870;BME280;40756;-37.950;145.008;2023-10-09T01:38:11;102537.48;;;14.64;41.75
54870;BME280;40756;-37.950;145.008;2023-10-09T01:40:41;102532.04;;;14.63;41.81
54870;BME280;40756;-37.950;145.008;2023-10-09T01:43:11;102529.46;;;15.77;40.24
54870;BME280;40756;-37.950;145.008;2023-10-09T01:45:40;102525.18;;;14.33;41.45
54870;BME280;40756;-37.950;145.008;2023-10-09T01:48:10;102524.58;;;15.18;40.34
54870;BME280;40756;-37.950;145.008;2023-10-09T01:50:40;102525.25;;;14.36;40.75
54870;BME280;40756;-37.950;145.008;2023-10-09T01:53:10;102522.45;;;15.31;40.47
54870;BME280;40756;-37.950;145.008;2023-10-09T01:55:40;102519.73;;;15.63;40.20
54870;BME280;40756;-37.950;145.008;2023-10-09T01:58:09;102520.11;;;16.20;39.71
54870;BME280;40756;-37.950;145.008;2023-10-09T02:00:39;102517.87;;;16.65;38.32
54870;BME280;40756;-37.950;145.008;2023-10-09T02:03:08;102516.13;;;15.87;38.90
54870;BME280;40756;-37.950;145.008;2023-10-09T02:05:38;102516.29;;;16.23;38.79
54870;BME280;40756;-37.950;145.008;2023-10-09T02:08:07;102518.49;;;15.72;39.70
54870;BME280;40756;-37.950;145.008;2023-10-09T02:10:37;102518.06;;;14.76;41.58
54870;BME280;40756;-37.950;145.008;2023-10-09T02:13:07;102509.81;;;14.49;40.80
54870;BME280;40756;-37.950;145.008;2023-10-09T02:15:39;102512.69;;;14.58;41.53
54870;BME280;40756;-37.950;145.008;2023-10-09T02:18:09;102514.53;;;15.87;40.20
54870;BME280;40756;-37.950;145.008;2023-10-09T02:20:38;102507.59;;;16.27;38.59
54870;BME280;40756;-37.950;145.008;2023-10-09T02:23:08;102506.06;;;16.17;37.80
54870;BME280;40756;-37.950;145.008;2023-10-09T02:25:37;102507.73;;;16.61;37.31
54870;BME280;40756;-37.950;145.008;2023-10-09T02:28:07;102503.06;;;17.04;35.22
54870;BME280;40756;-37.950;145.008;2023-10-09T02:30:36;102503.64;;;16.47;35.61
54870;BME280;40756;-37.950;145.008;2023-10-09T02:33:07;102503.24;;;16.57;34.95
54870;BME280;40756;-37.950;145.008;2023-10-09T02:35:37;102498.56;;;16.99;34.56
54870;BME280;40756;-37.950;145.008;2023-10-09T02:38:07;102494.05;;;16.72;33.59
54870;BME280;40756;-37.950;145.008;2023-10-09T02:40:36;102499.79;;;16.51;34.62
54870;BME280;40756;-37.950;145.008;2023-10-09T02:43:06;102494.35;;;17.11;34.14
54870;BME280;40756;-37.950;145.008;2023-10-09T02:45:35;102500.13;;;15.33;35.89
54870;BME280;40756;-37.950;145.008;2023-10-09T02:48:05;102496.31;;;16.33;34.92
54870;BME280;40756;-37.950;145.008;2023-10-09T02:50:36;102487.75;;;16.92;34.25
54870;BME280;40756;-37.950;145.008;2023-10-09T02:53:11;102489.67;;;17.04;34.29
54870;BME280;40756;-37.950;145.008;2023-10-09T02:55:42;102490.29;;;18.20;33.11
54870;BME280;40756;-37.950;145.008;2023-10-09T02:58:11;102488.31;;;16.98;33.36
54870;BME280;40756;-37.950;145.008;2023-10-09T03:00:41;102485.25;;;18.01;34.47
54870;BME280;40756;-37.950;145.008;2023-10-09T03:03:10;102484.58;;;18.58;33.11
54870;BME280;40756;-37.950;145.008;2023-10-09T03:05:40;102482.68;;;17.49;32.64
54870;BME280;40756;-37.950;145.008;2023-10-09T03:08:09;102482.43;;;18.16;32.55
54870;BME280;40756;-37.950;145.008;2023-10-09T03:10:39;102473.26;;;18.47;32.94
54870;BME280;40756;-37.950;145.008;2023-10-09T03:13:08;102465.97;;;17.86;33.86
54870;BME280;40756;-37.950;145.008;2023-10-09T03:15:39;102471.49;;;17.24;35.92
54870;BME280;40756;-37.950;145.008;2023-10-09T03:18:09;102470.51;;;16.63;36.61
54870;BME280;40756;-37.950;145.008;2023-10-09T03:20:39;102471.14;;;16.97;37.50
54870;BME280;40756;-37.950;145.008;2023-10-09T03:23:08;102476.53;;;16.17;36.08
54870;BME280;40756;-37.950;145.008;2023-10-09T03:25:38;102472.63;;;17.59;35.92
54870;BME280;40756;-37.950;145.008;2023-10-09T03:28:07;102466.15;;;17.77;34.47
54870;BME280;40756;-37.950;145.008;2023-10-09T03:30:37;102466.26;;;17.50;35.66
54870;BME280;40756;-37.950;145.008;2023-10-09T03:33:06;102460.29;;;18.22;34.11
54870;BME280;40756;-37.950;145.008;2023-10-09T03:35:36;102456.28;;;18.14;33.20
54870;BME280;40756;-37.950;145.008;2023-10-09T03:38:06;102449.87;;;16.97;34.31
54870;BME280;40756;-37.950;145.008;2023-10-09T03:40:35;102447.14;;;18.58;32.34
54870;BME280;40756;-37.950;145.008;2023-10-09T03:43:05;102446.58;;;16.89;34.49
54870;BME280;40756;-37.950;145.008;2023-10-09T03:45:34;102438.37;;;18.12;32.98
54870;BME280;40756;-37.950;145.008;2023-10-09T03:48:04;102436.35;;;17.70;34.98
54870;BME280;40756;-37.950;145.008;2023-10-09T03:50:34;102427.02;;;19.49;32.27
54870;BME280;40756;-37.950;145.008;2023-10-09T03:53:05;102425.36;;;19.48;32.06
54870;BME280;40756;-37.950;145.008;2023-10-09T03:55:37;102422.50;;;17.77;33.16
54870;BME280;40756;-37.950;145.008;2023-10-09T03:58:07;102426.67;;;18.25;33.23
54870;BME280;40756;-37.950;145.008;2023-10-09T04:00:37;102420.68;;;18.45;32.49
54870;BME280;40756;-37.950;145.008;2023-10-09T04:03:06;102417.97;;;17.96;32.63
54870;BME280;40756;-37.950;145.008;2023-10-09T04:05:35;102410.12;;;17.59;34.11
54870;BME280;40756;-37.950;145.008;2023-10-09T04:08:05;102404.67;;;17.71;33.17
54870;BME280;40756;-37.950;145.008;2023-10-09T04:10:34;102400.73;;;17.38;34.25
54870;BME280;40756;-37.950;145.008;2023-10-09T04:13:04;102398.73;;;17.13;34.19
54870;BME280;40756;-37.950;145.008;2023-10-09T04:15:33;102399.16;;;17.25;34.12
54870;BME280;40756;-37.950;145.008;2023-10-09T04:18:03;102397.87;;;17.99;33.64
54870;BME280;40756;-37.950;145.008;2023-10-09T04:20:32;102388.96;;;18.24;32.38
54870;BME280;40756;-37.950;145.008;2023-10-09T04:23:02;102387.79;;;17.85;33.60
54870;BME280;40756;-37.950;145.008;2023-10-09T04:25:33;102381.35;;;18.61;31.69
54870;BME280;40756;-37.950;145.008;2023-10-09T04:28:02;102384.36;;;16.62;34.12
54870;BME280;40756;-37.950;145.008;2023-10-09T04:30:32;102375.19;;;18.90;32.18
54870;BME280;40756;-37.950;145.008;2023-10-09T04:33:01;102383.16;;;17.46;33.85
54870;BME280;40756;-37.950;145.008;2023-10-09T04:35:32;102379.40;;;17.31;32.62
54870;BME280;40756;-37.950;145.008;2023-10-09T04:38:01;102376.78;;;17.94;32.07
54870;BME280;40756;-37.950;145.008;2023-10-09T04:40:31;102372.95;;;17.92;33.20
54870;BME280;40756;-37.950;145.008;2023-10-09T04:43:00;102373.55;;;17.49;32.00
54870;BME280;40756;-37.950;145.008;2023-10-09T04:45:30;102363.74;;;17.88;32.97
54870;BME280;40756;-37.950;145.008;2023-10-09T04:47:59;102364.46;;;17.62;33.19
54870;BME280;40756;-37.950;145.008;2023-10-09T04:50:29;102363.73;;;18.46;32.05
54870;BME280;40756;-37.950;145.008;2023-10-09T04:52:58;102359.08;;;18.59;32.39
54870;BME280;40756;-37.950;145.008;2023-10-09T04:55:28;102353.21;;;19.40;31.32
54870;BME280;40756;-37.950;145.008;2023-10-09T04:57:58;102350.65;;;18.12;31.97
54870;BME280;40756;-37.950;145.008;2023-10-09T05:00:28;102349.96;;;17.95;32.10
54870;BME280;40756;-37.950;145.008;2023-10-09T05:02:59;102354.37;;;17.58;33.14
54870;BME280;40756;-37.950;145.008;2023-10-09T05:05:30;102356.41;;;17.12;32.22
54870;BME280;40756;-37.950;145.008;2023-10-09T05:07:59;102349.70;;;16.94;33.19
54870;BME280;40756;-37.950;145.008;2023-10-09T05:10:29;102352.56;;;16.82;33.37
54870;BME280;40756;-37.950;145.008;2023-10-09T05:12:58;102347.03;;;19.01;31.69
54870;BME280;40756;-37.950;145.008;2023-10-09T05:15:28;102346.57;;;18.26;32.15
54870;BME280;40756;-37.950;145.008;2023-10-09T05:17:58;102346.89;;;17.79;31.60
54870;BME280;40756;-37.950;145.008;2023-10-09T05:20:27;102351.65;;;18.55;31.12
54870;BME280;40756;-37.950;145.008;2023-10-09T05:22:57;102350.22;;;17.48;32.21
54870;BME280;40756;-37.950;145.008;2023-10-09T05:25:27;102345.82;;;17.94;31.21
54870;BME280;40756;-37.950;145.008;2023-10-09T05:27:56;102347.63;;;18.91;30.95
54870;BME280;40756;-37.950;145.008;2023-10-09T05:30:26;102346.05;;;18.10;31.14
54870;BME280;40756;-37.950;145.008;2023-10-09T05:32:56;102344.00;;;17.38;32.53
54870;BME280;40756;-37.950;145.008;2023-10-09T05:35:26;102348.60;;;16.55;34.50
54870;BME280;40756;-37.950;145.008;2023-10-09T05:37:55;102344.12;;;17.87;34.09
54870;BME280;40756;-37.950;145.008;2023-10-09T05:40:25;102347.56;;;18.01;33.50
54870;BME280;40756;-37.950;145.008;2023-10-09T05:42:54;102345.52;;;16.71;35.74
54870;BME280;40756;-37.950;145.008;2023-10-09T05:45:24;102343.86;;;17.18;35.56
54870;BME280;40756;-37.950;145.008;2023-10-09T05:47:55;102345.87;;;17.05;35.30
54870;BME280;40756;-37.950;145.008;2023-10-09T05:50:26;102351.66;;;16.45;34.77
54870;BME280;40756;-37.950;145.008;2023-10-09T05:52:57;102349.70;;;17.64;33.78
54870;BME280;40756;-37.950;145.008;2023-10-09T05:55:27;102352.62;;;16.86;34.36
54870;BME280;40756;-37.950;145.008;2023-10-09T05:57:58;102353.65;;;15.84;35.60
54870;BME280;40756;-37.950;145.008;2023-10-09T06:00:28;102350.92;;;15.85;35.14
54870;BME280;40756;-37.950;145.008;2023-10-09T06:02:57;102345.91;;;17.30;32.93
54870;BME280;40756;-37.950;145.008;2023-10-09T06:05:27;102344.01;;;16.36;34.06
54870;BME280;40756;-37.950;145.008;2023-10-09T06:07:57;102341.77;;;16.52;35.57
54870;BME280;40756;-37.950;145.008;2023-10-09T06:10:26;102352.29;;;15.64;35.78
54870;BME280;40756;-37.950;145.008;2023-10-09T06:12:56;102347.07;;;15.71;34.58
54870;BME280;40756;-37.950;145.008;2023-10-09T06:15:25;102345.36;;;16.35;35.44
54870;BME280;40756;-37.950;145.008;2023-10-09T06:17:56;102351.09;;;15.69;35.65
54870;BME280;40756;-37.950;145.008;2023-10-09T06:20:25;102350.88;;;15.49;34.77
54870;BME280;40756;-37.950;145.008;2023-10-09T06:22:55;102346.47;;;15.86;35.05
54870;BME280;40756;-37.950;145.008;2023-10-09T06:25:24;102348.58;;;15.79;35.08
54870;BME280;40756;-37.950;145.008;2023-10-09T06:27:54;102349.61;;;16.24;35.14
54870;BME280;40756;-37.950;145.008;2023-10-09T06:30:24;102351.82;;;16.06;34.47
54870;BME280;40756;-37.950;145.008;2023-10-09T06:32:53;102350.60;;;16.26;34.63
54870;BME280;40756;-37.950;145.008;2023-10-09T06:35:23;102355.26;;;15.15;35.56
54870;BME280;40756;-37.950;145.008;2023-10-09T06:37:53;102350.49;;;15.99;36.23
54870;BME280;40756;-37.950;145.008;2023-10-09T06:40:22;102351.30;;;16.22;34.64
54870;BME280;40756;-37.950;145.008;2023-10-09T06:42:51;102353.74;;;15.46;35.45
54870;BME280;40756;-37.950;145.008;2023-10-09T06:45:21;102360.13;;;14.84;37.61
54870;BME280;40756;-37.950;145.008;2023-10-09T06:47:51;102356.50;;;15.40;36.89
54870;BME280;40756;-37.950;145.008;2023-10-09T06:50:21;102358.95;;;15.83;37.06
54870;BME280;40756;-37.950;145.008;2023-10-09T06:52:51;102359.74;;;14.72;38.46
54870;BME280;40756;-37.950;145.008;2023-10-09T06:55:21;102361.91;;;15.20;37.85
54870;BME280;40756;-37.950;145.008;2023-10-09T06:57:51;102366.83;;;14.46;38.82
54870;BME280;40756;-37.950;145.008;2023-10-09T07:00:21;102362.21;;;14.37;38.93
54870;BME280;40756;-37.950;145.008;2023-10-09T07:02:51;102366.57;;;15.26;38.34
54870;BME280;40756;-37.950;145.008;2023-10-09T07:05:20;102367.02;;;13.69;38.88
54870;BME280;40756;-37.950;145.008;2023-10-09T07:07:50;102367.97;;;14.43;38.86
54870;BME280;40756;-37.950;145.008;2023-10-09T07:10:19;102364.80;;;14.42;39.43
54870;BME280;40756;-37.950;145.008;2023-10-09T07:12:49;102366.35;;;14.40;39.59
54870;BME280;40756;-37.950;145.008;2023-10-09T07:15:19;102373.21;;;14.82;38.84
54870;BME280;40756;-37.950;145.008;2023-10-09T07:17:50;102371.51;;;13.16;41.40
54870;BME280;40756;-37.950;145.008;2023-10-09T07:20:19;102366.04;;;13.25;41.74
54870;BME280;40756;-37.950;145.008;2023-10-09T07:22:48;102362.29;;;14.43;40.04
54870;BME280;40756;-37.950;145.008;2023-10-09T07:25:19;102365.27;;;15.06;39.56
54870;BME280;40756;-37.950;145.008;2023-10-09T07:27:49;102363.79;;;13.97;41.14
54870;BME280;40756;-37.950;145.008;2023-10-09T07:30:20;102363.84;;;14.30;40.74
54870;BME280;40756;-37.950;145.008;2023-10-09T07:32:50;102369.86;;;14.13;41.49
54870;BME280;40756;-37.950;145.008;2023-10-09T07:35:19;102371.93;;;13.91;41.73
54870;BME280;40756;-37.950;145.008;2023-10-09T07:37:49;102371.82;;;13.87;41.68
54870;BME280;40756;-37.950;145.008;2023-10-09T07:40:18;102368.88;;;14.56;41.91
54870;BME280;40756;-37.950;145.008;2023-10-09T07:42:48;102375.98;;;13.40;43.21
54870;BME280;40756;-37.950;145.008;2023-10-09T07:45:18;102374.85;;;13.68;42.51
54870;BME280;40756;-37.950;145.008;2023-10-09T07:47:48;102377.29;;;13.37;43.01
54870;BME280;40756;-37.950;145.008;2023-10-09T07:50:17;102379.72;;;13.26;42.98
54870;BME280;40756;-37.950;145.008;2023-10-09T07:52:47;102378.44;;;13.40;42.88
54870;BME280;40756;-37.950;145.008;2023-10-09T07:55:18;102379.23;;;13.21;44.65
54870;BME280;40756;-37.950;145.008;2023-10-09T07:57:48;102373.48;;;13.43;43.51
54870;BME280;40756;-37.950;145.008;2023-10-09T08:00:18;102375.04;;;13.47;44.38
54870;BME280;40756;-37.950;145.008;2023-10-09T08:02:48;102375.67;;;13.54;43.90
54870;BME280;40756;-37.950;145.008;2023-10-09T08:05:17;102374.17;;;12.73;44.68
54870;BME280;40756;-37.950;145.008;2023-10-09T08:07:47;102374.45;;;13.01;44.71
54870;BME280;40756;-37.950;145.008;2023-10-09T08:10:16;102375.97;;;13.99;43.76
54870;BME280;40756;-37.950;145.008;2023-10-09T08:12:46;102378.83;;;13.58;43.89
54870;BME280;40756;-37.950;145.008;2023-10-09T08:15:16;102382.11;;;13.50;44.10
54870;BME280;40756;-37.950;145.008;2023-10-09T08:17:46;102382.72;;;12.81;45.52
54870;BME280;40756;-37.950;145.008;2023-10-09T08:20:17;102381.59;;;13.43;44.47
54870;BME280;40756;-37.950;145.008;2023-10-09T08:22:46;102382.52;;;12.29;46.62
54870;BME280;40756;-37.950;145.008;2023-10-09T08:25:16;102384.25;;;13.10;45.43
54870;BME280;40756;-37.950;145.008;2023-10-09T08:27:46;102384.23;;;12.99;46.01
54870;BME280;40756;-37.950;145.008;2023-10-09T08:30:15;102387.23;;;13.15;46.00
54870;BME280;40756;-37.950;145.008;2023-10-09T08:32:46;102387.67;;;13.24;45.85
54870;BME280;40756;-37.950;145.008;2023-10-09T08:35:16;102388.71;;;12.91;46.35
54870;BME280;40756;-37.950;145.008;2023-10-09T08:37:45;102388.27;;;12.64;46.77
54870;BME280;40756;-37.950;145.008;2023-10-09T08:40:15;102389.13;;;13.77;45.44
54870;BME280;40756;-37.950;145.008;2023-10-09T08:42:46;102389.33;;;13.37;46.30
54870;BME280;40756;-37.950;145.008;2023-10-09T08:45:22;102396.66;;;13.86;45.99
54870;BME280;40756;-37.950;145.008;2023-10-09T08:47:52;102404.57;;;12.60;47.63
54870;BME280;40756;-37.950;145.008;2023-10-09T08:50:22;102407.05;;;12.38;47.77
54870;BME280;40756;-37.950;145.008;2023-10-09T08:52:52;102404.20;;;13.15;46.47
54870;BME280;40756;-37.950;145.008;2023-10-09T08:55:23;102406.00;;;12.82;47.07
54870;BME280;40756;-37.950;145.008;2023-10-09T08:57:53;102407.30;;;12.57;47.92
54870;BME280;40756;-37.950;145.008;2023-10-09T09:00:23;102415.77;;;12.22;47.62
54870;BME280;40756;-37.950;145.008;2023-10-09T09:02:54;102418.28;;;12.61;47.54
54870;BME280;40756;-37.950;145.008;2023-10-09T09:05:24;102420.47;;;13.18;46.22
54870;BME280;40756;-37.950;145.008;2023-10-09T09:07:54;102420.65;;;13.73;45.55
54870;BME280;40756;-37.950;145.008;2023-10-09T09:10:28;102428.18;;;12.70;46.08
54870;BME280;40756;-37.950;145.008;2023-10-09T09:12:58;102431.92;;;13.07;45.70
54870;BME280;40756;-37.950;145.008;2023-10-09T09:15:29;102432.72;;;13.72;44.77
54870;BME280;40756;-37.950;145.008;2023-10-09T09:18:06;102433.94;;;12.95;45.58
54870;BME280;40756;-37.950;145.008;2023-10-09T09:20:35;102438.75;;;12.53;46.29
54870;BME280;40756;-37.950;145.008;2023-10-09T09:23:05;102439.28;;;13.12;45.28
54870;BME280;40756;-37.950;145.008;2023-10-09T09:25:43;102439.26;;;13.62;44.52
54870;BME280;40756;-37.950;145.008;2023-10-09T09:28:13;102446.75;;;13.05;45.59
54870;BME280;40756;-37.950;145.008;2023-10-09T09:30:43;102444.40;;;13.46;44.31
54870;BME280;40756;-37.950;145.008;2023-10-09T09:33:22;102446.09;;;13.68;43.96
54870;BME280;40756;-37.950;145.008;2023-10-09T09:36:00;102447.32;;;13.67;43.70
54870;BME280;40756;-37.950;145.008;2023-10-09T09:38:31;102446.79;;;13.12;44.03
54870;BME280;40756;-37.950;145.008;2023-10-09T09:41:01;102444.91;;;13.64;43.27
54870;BME280;40756;-37.950;145.008;2023-10-09T09:43:33;102450.98;;;14.04;42.57
54870;BME280;40756;-37.950;145.008;2023-10-09T09:46:03;102454.52;;;14.11;42.19
54870;BME280;40756;-37.950;145.008;2023-10-09T09:48:33;102459.71;;;13.28;43.56
54870;BME280;40756;-37.950;145.008;2023-10-09T09:51:02;102460.49;;;13.76;42.08
54870;BME280;40756;-37.950;145.008;2023-10-09T09:53:32;102461.46;;;13.62;42.40
54870;BME280;40756;-37.950;145.008;2023-10-09T09:56:04;102457.44;;;14.06;42.55
54870;BME280;40756;-37.950;145.008;2023-10-09T09:58:36;102456.15;;;13.26;43.02
54870;BME280;40756;-37.950;145.008;2023-10-09T10:01:07;102457.15;;;14.07;42.66
54870;BME280;40756;-37.950;145.008;2023-10-09T10:03:40;102455.11;;;14.41;42.19
54870;BME280;40756;-37.950;145.008;2023-10-09T10:06:13;102457.24;;;13.41;43.37
54870;BME280;40756;-37.950;145.008;2023-10-09T10:08:43;102462.63;;;12.52;44.52
54870;BME280;40756;-37.950;145.008;2023-10-09T10:11:43;102463.59;;;13.13;44.35
54870;BME280;40756;-37.950;145.008;2023-10-09T10:14:13;102461.46;;;13.71;43.63
54870;BME280;40756;-37.950;145.008;2023-10-09T10:17:03;102459.93;;;13.96;43.39
54870;BME280;40756;-37.950;145.008;2023-10-09T10:20:02;102459.63;;;14.11;42.91
54870;BME280;40756;-37.950;145.008;2023-10-09T10:22:32;102462.23;;;13.50;44.20
54870;BME280;40756;-37.950;145.008;2023-10-09T10:25:01;102456.54;;;13.60;43.84
54870;BME280;40756;-37.950;145.008;2023-10-09T10:27:31;102461.15;;;12.45;45.46
54870;BME280;40756;-37.950;145.008;2023-10-09T10:30:33;102456.29;;;12.99;44.67
54870;BME280;40756;-37.950;145.008;2023-10-09T10:33:03;102459.80;;;11.72;47.55
54870;BME280;40756;-37.950;145.008;2023-10-09T10:35:32;102451.88;;;13.18;45.07
54870;BME280;40756;-37.950;145.008;2023-10-09T10:38:02;102452.77;;;13.48;44.81
54870;BME280;40756;-37.950;145.008;2023-10-09T10:40:32;102458.27;;;12.84;44.84
54870;BME280;40756;-37.950;145.008;2023-10-09T10:43:01;102457.93;;;13.73;43.69
54870;BME280;40756;-37.950;145.008;2023-10-09T10:45:31;102455.76;;;12.93;44.28
54870;BME280;40756;-37.950;145.008;2023-10-09T10:48:01;102455.85;;;12.75;44.14
54870;BME280;40756;-37.950;145.008;2023-10-09T10:50:31;102455.71;;;12.70;43.66
54870;BME280;40756;-37.950;145.008;2023-10-09T10:53:11;102456.27;;;13.59;42.01
54870;BME280;40756;-37.950;145.008;2023-10-09T10:55:50;102452.12;;;13.59;41.90
54870;BME280;40756;-37.950;145.008;2023-10-09T10:58:23;102457.11;;;12.29;43.60
54870;BME280;40756;-37.950;145.008;2023-10-09T11:00:55;102453.74;;;12.36;44.07
54870;BME280;40756;-37.950;145.008;2023-10-09T11:03:25;102448.53;;;12.60;42.85
54870;BME280;40756;-37.950;145.008;2023-10-09T11:05:56;102446.23;;;12.88;42.27
54870;BME280;40756;-37.950;145.008;2023-10-09T11:08:29;102447.84;;;12.28;42.86
54870;BME280;40756;-37.950;145.008;2023-10-09T11:11:12;102447.51;;;12.10;43.31
54870;BME280;40756;-37.950;145.008;2023-10-09T11:13:43;102452.76;;;11.69;44.40
54870;BME280;40756;-37.950;145.008;2023-10-09T11:16:13;102450.84;;;12.45;43.71
54870;BME280;40756;-37.950;145.008;2023-10-09T11:18:43;102451.10;;;12.87;42.88
54870;BME280;40756;-37.950;145.008;2023-10-09T11:21:14;102449.63;;;13.33;41.94
54870;BME280;40756;-37.950;145.008;2023-10-09T11:23:45;102450.67;;;13.57;42.23
54870;BME280;40756;-37.950;145.008;2023-10-09T11:26:15;102445.91;;;12.90;42.90
54870;BME280;40756;-37.950;145.008;2023-10-09T11:28:45;102440.45;;;13.64;41.23
54870;BME280;40756;-37.950;145.008;2023-10-09T11:31:14;102439.77;;;12.87;42.11
54870;BME280;40756;-37.950;145.008;2023-10-09T11:33:45;102441.19;;;13.12;41.98
54870;BME280;40756;-37.950;145.008;2023-10-09T11:36:15;102438.82;;;12.85;42.72
54870;BME280;40756;-37.950;145.008;2023-10-09T11:38:44;102434.89;;;13.68;41.52
54870;BME280;40756;-37.950;145.008;2023-10-09T11:41:15;102438.69;;;12.12;43.24
54870;BME280;40756;-37.950;145.008;2023-10-09T11:43:48;102434.72;;;12.78;42.19
54870;BME280;40756;-37.950;145.008;2023-10-09T11:46:19;102435.45;;;13.42;41.25
54870;BME280;40756;-37.950;145.008;2023-10-09T11:49:04;102435.07;;;13.91;40.73
54870;BME280;40756;-37.950;145.008;2023-10-09T11:51:34;102434.76;;;13.54;40.78
54870;BME280;40756;-37.950;145.008;2023-10-09T11:54:04;102431.56;;;13.49;40.70
54870;BME280;40756;-37.950;145.008;2023-10-09T11:56:34;102434.59;;;12.25;41.89
54870;BME280;40756;-37.950;145.008;2023-10-09T11:59:03;102430.34;;;13.20;41.01
54870;BME280;40756;-37.950;145.008;2023-10-09T12:01:33;102426.75;;;13.20;41.28
54870;BME280;40756;-37.950;145.008;2023-10-09T12:04:03;102425.88;;;13.22;40.82
54870;BME280;40756;-37.950;145.008;2023-10-09T12:06:33;102426.40;;;13.82;40.10
54870;BME280;40756;-37.950;145.008;2023-10-09T12:09:03;102427.79;;;13.96;39.98
54870;BME280;40756;-37.950;145.008;2023-10-09T12:11:33;102423.76;;;14.02;39.78
54870;BME280;40756;-37.950;145.008;2023-10-09T12:14:03;102424.52;;;13.79;40.43
54870;BME280;40756;-37.950;145.008;2023-10-09T12:16:32;102424.11;;;13.97;39.96
54870;BME280;40756;-37.950;145.008;2023-10-09T12:19:02;102423.88;;;13.29;40.73
54870;BME280;40756;-37.950;145.008;2023-10-09T12:21:32;102420.66;;;13.94;40.35
54870;BME280;40756;-37.950;145.008;2023-10-09T12:24:01;102420.41;;;13.64;40.40
54870;BME280;40756;-37.950;145.008;2023-10-09T12:26:31;102421.30;;;13.73;40.10
54870;BME280;40756;-37.950;145.008;2023-10-09T12:29:01;102419.23;;;14.17;40.02
54870;BME280;40756;-37.950;145.008;2023-10-09T12:31:30;102423.02;;;13.91;40.21
54870;BME280;40756;-37.950;145.008;2023-10-09T12:34:00;102421.09;;;12.53;42.09
54870;BME280;40756;-37.950;145.008;2023-10-09T12:36:30;102416.71;;;13.47;41.06